sensor_id;sensor_type;location;lat;lon;timestamp;P1;durP1;ratioP1;P2;durP2;ratioP2
43118;SDS011;28729;49.838;8.650;2023-08-12T00:03:53;5.37;;;3.00;;
43118;SDS011;28729;49.838;8.650;2023-08-12T00:07:55;5.80;;;4.00;;
43118;SDS011;28729;49.838;8.650;2023-08-12T00:11:57;8.87;;;3.90;;
43118;SDS011;28729;49.838;8.650;2023-08-12T00:15:59;5.60;;;3.87;;
43118;SDS011;28729;49.838;8.650;2023-08-12T00:20:01;9.50;;;3.83;;
43118;SDS011;28729;49.838;8.650;2023-08-12T00:24:03;5.07;;;3.75;;
43118;SDS011;28729;49.838;8.650;2023-08-12T00:32:08;8.73;;;3.90;;
43118;SDS011;28729;49.838;8.650;2023-08-12T00:36:10;7.93;;;4.07;;
43118;SDS011;28729;49.838;8.650;2023-08-12T00:40:12;7.60;;;3.93;;
43118;SDS011;28729;49.838;8.650;2023-08-12T00:44:14;11.65;;;4.72;;
43118;SDS011;28729;49.838;8.650;2023-08-12T00:48:16;11.73;;;4.07;;
43118;SDS011;28729;49.838;8.650;2023-08-12T00:52:19;10.52;;;3.70;;
43118;SDS011;28729;49.838;8.650;2023-08-12T00:56:21;8.25;;;4.38;;
43118;SDS011;28729;49.838;8.650;2023-08-12T01:00:23;5.43;;;3.83;;
43118;SDS011;28729;49.838;8.650;2023-08-12T01:04:26;9.43;;;3.97;;
43118;SDS011;28729;49.838;8.650;2023-08-12T01:08:29;5.85;;;3.60;;
43118;SDS011;28729;49.838;8.650;2023-08-12T01:12:34;4.95;;;3.88;;
43118;SDS011;28729;49.838;8.650;2023-08-12T01:16:43;6.93;;;3.50;;
43118;SDS011;28729;49.838;8.650;2023-08-12T01:20:48;5.90;;;3.40;;
43118;SDS011;28729;49.838;8.650;2023-08-12T01:24:51;5.70;;;3.60;;
43118;SDS011;28729;49.838;8.650;2023-08-12T01:28:53;7.53;;;3.90;;
43118;SDS011;28729;49.838;8.650;2023-08-12T01:33:07;6.87;;;4.20;;
43118;SDS011;28729;49.838;8.650;2023-08-12T01:37:16;6.43;;;3.80;;
43118;SDS011;28729;49.838;8.650;2023-08-12T01:41:24;7.15;;;4.30;;
43118;SDS011;28729;49.838;8.650;2023-08-12T01:45:31;6.88;;;4.35;;
43118;SDS011;28729;49.838;8.650;2023-08-12T01:49:33;6.47;;;4.50;;
43118;SDS011;28729;49.838;8.650;2023-08-12T01:53:37;8.18;;;5.45;;
43118;SDS011;28729;49.838;8.650;2023-08-12T01:57:39;6.00;;;4.80;;
43118;SDS011;28729;49.838;8.650;2023-08-12T02:05:44;7.95;;;5.28;;
43118;SDS011;28729;49.838;8.650;2023-08-12T02:09:45;12.03;;;6.20;;
43118;SDS011;28729;49.838;8.650;2023-08-12T02:13:47;11.97;;;5.50;;
43118;SDS011;28729;49.838;8.650;2023-08-12T02:17:49;8.30;;;5.90;;
43118;SDS011;28729;49.838;8.650;2023-08-12T02:21:51;9.63;;;4.95;;
43118;SDS011;28729;49.838;8.650;2023-08-12T02:25:53;11.13;;;5.50;;
43118;SDS011;28729;49.838;8.650;2023-08-12T02:29:55;14.48;;;5.65;;
43118;SDS011;28729;49.838;8.650;2023-08-12T02:33:57;7.80;;;5.53;;
43118;SDS011;28729;49.838;8.650;2023-08-12T02:37:59;10.73;;;5.82;;
43118;SDS011;28729;49.838;8.650;2023-08-12T02:42:01;8.53;;;5.60;;
43118;SDS011;28729;49.838;8.650;2023-08-12T02:46:03;8.63;;;5.67;;
43118;SDS011;28729;49.838;8.650;2023-08-12T02:50:05;10.23;;;5.73;;
43118;SDS011;28729;49.838;8.650;2023-08-12T02:54:07;9.95;;;6.28;;
43118;SDS011;28729;49.838;8.650;2023-08-12T02:58:10;11.43;;;5.47;;
43118;SDS011;28729;49.838;8.650;2023-08-12T03:02:12;7.07;;;5.60;;
43118;SDS011;28729;49.838;8.650;2023-08-12T03:06:14;9.25;;;6.63;;
43118;SDS011;28729;49.838;8.650;2023-08-12T03:10:15;10.20;;;6.20;;
43118;SDS011;28729;49.838;8.650;2023-08-12T03:14:17;9.80;;;6.43;;
43118;SDS011;28729;49.838;8.650;2023-08-12T03:18:19;9.20;;;6.43;;
43118;SDS011;28729;49.838;8.650;2023-08-12T03:22:21;9.82;;;6.63;;
43118;SDS011;28729;49.838;8.650;2023-08-12T03:26:23;10.60;;;7.07;;
43118;SDS011;28729;49.838;8.650;2023-08-12T03:30:28;11.43;;;7.30;;
43118;SDS011;28729;49.838;8.650;2023-08-12T03:34:30;12.85;;;6.95;;
43118;SDS011;28729;49.838;8.650;2023-08-12T03:38:33;9.77;;;6.68;;
43118;SDS011;28729;49.838;8.650;2023-08-12T03:42:38;10.32;;;7.65;;
43118;SDS011;28729;49.838;8.650;2023-08-12T03:46:40;11.82;;;7.03;;
43118;SDS011;28729;49.838;8.650;2023-08-12T03:50:42;14.75;;;7.95;;
43118;SDS011;28729;49.838;8.650;2023-08-12T03:54:45;12.63;;;8.40;;
43118;SDS011;28729;49.838;8.650;2023-08-12T03:58:46;18.23;;;9.43;;
43118;SDS011;28729;49.838;8.650;2023-08-12T04:02:48;13.35;;;8.18;;
43118;SDS011;28729;49.838;8.650;2023-08-12T04:06:58;16.48;;;9.23;;
43118;SDS011;28729;49.838;8.650;2023-08-12T04:11:00;12.65;;;9.35;;
43118;SDS011;28729;49.838;8.650;2023-08-12T04:15:02;13.65;;;9.02;;
43118;SDS011;28729;49.838;8.650;2023-08-12T04:19:06;12.55;;;8.40;;
43118;SDS011;28729;49.838;8.650;2023-08-12T04:27:10;14.38;;;8.98;;
43118;SDS011;28729;49.838;8.650;2023-08-12T04:31:13;13.98;;;8.55;;
43118;SDS011;28729;49.838;8.650;2023-08-12T04:35:16;14.07;;;9.77;;
43118;SDS011;28729;49.838;8.650;2023-08-12T04:39:19;12.40;;;9.57;;
43118;SDS011;28729;49.838;8.650;2023-08-12T04:43:21;13.38;;;9.40;;
43118;SDS011;28729;49.838;8.650;2023-08-12T04:47:23;12.35;;;9.55;;
43118;SDS011;28729;49.838;8.650;2023-08-12T04:51:30;13.77;;;9.23;;
43118;SDS011;28729;49.838;8.650;2023-08-12T04:55:33;12.57;;;8.73;;
43118;SDS011;28729;49.838;8.650;2023-08-12T04:59:36;16.73;;;9.85;;
43118;SDS011;28729;49.838;8.650;2023-08-12T05:03:40;12.30;;;9.15;;
43118;SDS011;28729;49.838;8.650;2023-08-12T05:07:43;12.65;;;9.20;;
43118;SDS011;28729;49.838;8.650;2023-08-12T05:11:46;15.90;;;9.45;;
43118;SDS011;28729;49.838;8.650;2023-08-12T05:15:49;11.73;;;8.38;;
43118;SDS011;28729;49.838;8.650;2023-08-12T05:19:52;13.50;;;8.00;;
43118;SDS011;28729;49.838;8.650;2023-08-12T05:23:54;9.97;;;7.97;;
43118;SDS011;28729;49.838;8.650;2023-08-12T05:27:55;11.93;;;7.55;;
43118;SDS011;28729;49.838;8.650;2023-08-12T05:31:57;11.93;;;8.27;;
43118;SDS011;28729;49.838;8.650;2023-08-12T05:35:59;13.38;;;8.15;;
43118;SDS011;28729;49.838;8.650;2023-08-12T05:40:01;12.37;;;7.87;;
43118;SDS011;28729;49.838;8.650;2023-08-12T05:44:04;11.43;;;7.88;;
43118;SDS011;28729;49.838;8.650;2023-08-12T05:48:07;10.02;;;6.90;;
43118;SDS011;28729;49.838;8.650;2023-08-12T05:56:12;10.15;;;6.68;;
43118;SDS011;28729;49.838;8.650;2023-08-12T06:00:14;10.88;;;7.30;;
43118;SDS011;28729;49.838;8.650;2023-08-12T06:04:16;8.53;;;6.83;;
43118;SDS011;28729;49.838;8.650;2023-08-12T06:08:17;10.00;;;6.50;;
43118;SDS011;28729;49.838;8.650;2023-08-12T06:12:19;13.23;;;6.93;;
43118;SDS011;28729;49.838;8.650;2023-08-12T06:16:21;9.87;;;7.67;;
43118;SDS011;28729;49.838;8.650;2023-08-12T06:20:23;11.07;;;6.87;;
43118;SDS011;28729;49.838;8.650;2023-08-12T06:28:27;9.23;;;6.60;;
43118;SDS011;28729;49.838;8.650;2023-08-12T06:32:29;9.80;;;6.83;;
43118;SDS011;28729;49.838;8.650;2023-08-12T06:36:31;7.07;;;6.03;;
43118;SDS011;28729;49.838;8.650;2023-08-12T06:40:33;10.07;;;6.87;;
43118;SDS011;28729;49.838;8.650;2023-08-12T06:44:35;8.90;;;6.10;;
43118;SDS011;28729;49.838;8.650;2023-08-12T06:48:36;10.63;;;6.13;;
43118;SDS011;28729;49.838;8.650;2023-08-12T06:52:38;8.00;;;5.70;;
43118;SDS011;28729;49.838;8.650;2023-08-12T06:56:40;11.00;;;6.07;;
43118;SDS011;28729;49.838;8.650;2023-08-12T07:00:42;7.17;;;5.63;;
43118;SDS011;28729;49.838;8.650;2023-08-12T07:04:43;9.45;;;5.57;;
43118;SDS011;28729;49.838;8.650;2023-08-12T07:08:45;8.95;;;5.80;;
43118;SDS011;28729;49.838;8.650;2023-08-12T07:12:47;9.60;;;5.57;;
43118;SDS011;28729;49.838;8.650;2023-08-12T07:16:49;9.60;;;6.10;;
43118;SDS011;28729;49.838;8.650;2023-08-12T07:20:50;9.97;;;6.53;;
43118;SDS011;28729;49.838;8.650;2023-08-12T07:24:52;6.65;;;5.55;;
43118;SDS011;28729;49.838;8.650;2023-08-12T07:28:54;8.32;;;5.70;;
43118;SDS011;28729;49.838;8.650;2023-08-12T07:32:56;9.45;;;6.70;;
43118;SDS011;28729;49.838;8.650;2023-08-12T07:36:58;7.57;;;5.65;;
43118;SDS011;28729;49.838;8.650;2023-08-12T07:40:59;9.10;;;6.13;;
43118;SDS011;28729;49.838;8.650;2023-08-12T07:45:01;7.40;;;5.80;;
43118;SDS011;28729;49.838;8.650;2023-08-12T07:49:03;9.93;;;6.97;;
43118;SDS011;28729;49.838;8.650;2023-08-12T07:53:05;11.02;;;6.65;;
43118;SDS011;28729;49.838;8.650;2023-08-12T07:57:07;8.98;;;6.75;;
43118;SDS011;28729;49.838;8.650;2023-08-12T08:01:09;10.73;;;6.57;;
43118;SDS011;28729;49.838;8.650;2023-08-12T08:05:10;6.80;;;5.82;;
43118;SDS011;28729;49.838;8.650;2023-08-12T08:09:12;13.50;;;7.32;;
43118;SDS011;28729;49.838;8.650;2023-08-12T08:13:14;10.63;;;6.45;;
43118;SDS011;28729;49.838;8.650;2023-08-12T08:17:16;9.40;;;6.75;;
43118;SDS011;28729;49.838;8.650;2023-08-12T08:21:18;14.65;;;7.60;;
43118;SDS011;28729;49.838;8.650;2023-08-12T08:29:22;12.30;;;7.60;;
43118;SDS011;28729;49.838;8.650;2023-08-12T08:33:25;11.80;;;7.80;;
43118;SDS011;28729;49.838;8.650;2023-08-12T08:37:27;9.38;;;8.02;;
43118;SDS011;28729;49.838;8.650;2023-08-12T08:41:30;11.35;;;7.20;;
43118;SDS011;28729;49.838;8.650;2023-08-12T08:45:33;11.23;;;7.35;;
43118;SDS011;28729;49.838;8.650;2023-08-12T08:49:36;10.50;;;8.13;;
43118;SDS011;28729;49.838;8.650;2023-08-12T08:53:38;10.63;;;6.85;;
43118;SDS011;28729;49.838;8.650;2023-08-12T08:57:41;9.65;;;7.07;;
43118;SDS011;28729;49.838;8.650;2023-08-12T09:01:48;11.25;;;6.82;;
43118;SDS011;28729;49.838;8.650;2023-08-12T09:05:53;9.95;;;8.00;;
43118;SDS011;28729;49.838;8.650;2023-08-12T09:09:56;9.23;;;7.40;;
43118;SDS011;28729;49.838;8.650;2023-08-12T09:13:59;10.55;;;7.40;;
43118;SDS011;28729;49.838;8.650;2023-08-12T09:18:01;12.65;;;8.32;;
43118;SDS011;28729;49.838;8.650;2023-08-12T09:22:07;9.90;;;6.22;;
43118;SDS011;28729;49.838;8.650;2023-08-12T09:26:18;10.23;;;7.25;;
43118;SDS011;28729;49.838;8.650;2023-08-12T09:30:21;10.00;;;6.28;;
43118;SDS011;28729;49.838;8.650;2023-08-12T09:38:25;12.23;;;6.53;;
43118;SDS011;28729;49.838;8.650;2023-08-12T09:42:27;10.57;;;6.28;;
43118;SDS011;28729;49.838;8.650;2023-08-12T09:46:29;7.38;;;5.05;;
43118;SDS011;28729;49.838;8.650;2023-08-12T09:50:34;10.20;;;6.35;;
43118;SDS011;28729;49.838;8.650;2023-08-12T09:54:37;10.30;;;5.88;;
43118;SDS011;28729;49.838;8.650;2023-08-12T09:58:39;10.13;;;5.85;;
43118;SDS011;28729;49.838;8.650;2023-08-12T10:02:45;7.13;;;4.85;;
43118;SDS011;28729;49.838;8.650;2023-08-12T10:06:49;8.57;;;4.47;;
43118;SDS011;28729;49.838;8.650;2023-08-12T10:10:51;11.10;;;4.50;;
43118;SDS011;28729;49.838;8.650;2023-08-12T10:15:11;9.52;;;5.10;;
43118;SDS011;28729;49.838;8.650;2023-08-12T10:19:14;7.70;;;4.72;;
43118;SDS011;28729;49.838;8.650;2023-08-12T10:23:17;8.30;;;5.25;;
43118;SDS011;28729;49.838;8.650;2023-08-12T10:27:20;20.48;;;7.93;;
43118;SDS011;28729;49.838;8.650;2023-08-12T10:31:21;25.92;;;13.50;;
43118;SDS011;28729;49.838;8.650;2023-08-12T10:39:41;35.35;;;19.10;;
43118;SDS011;28729;49.838;8.650;2023-08-12T10:43:53;32.05;;;18.70;;
43118;SDS011;28729;49.838;8.650;2023-08-12T10:52:26;38.13;;;19.83;;
43118;SDS011;28729;49.838;8.650;2023-08-12T10:56:28;46.75;;;23.67;;
43118;SDS011;28729;49.838;8.650;2023-08-12T11:00:30;50.30;;;20.53;;
43118;SDS011;28729;49.838;8.650;2023-08-12T11:04:36;13.43;;;7.87;;
43118;SDS011;28729;49.838;8.650;2023-08-12T11:08:48;20.95;;;10.15;;
43118;SDS011;28729;49.838;8.650;2023-08-12T11:12:55;18.08;;;10.30;;
43118;SDS011;28729;49.838;8.650;2023-08-12T11:16:57;23.48;;;12.68;;
43118;SDS011;28729;49.838;8.650;2023-08-12T11:20:59;21.83;;;10.47;;
43118;SDS011;28729;49.838;8.650;2023-08-12T11:25:02;18.63;;;10.73;;
43118;SDS011;28729;49.838;8.650;2023-08-12T11:29:10;23.38;;;10.63;;
43118;SDS011;28729;49.838;8.650;2023-08-12T11:33:12;15.13;;;8.30;;
43118;SDS011;28729;49.838;8.650;2023-08-12T11:37:20;21.90;;;10.15;;
43118;SDS011;28729;49.838;8.650;2023-08-12T11:41:24;18.83;;;10.73;;
43118;SDS011;28729;49.838;8.650;2023-08-12T11:45:28;20.52;;;12.18;;
43118;SDS011;28729;49.838;8.650;2023-08-12T11:49:30;22.33;;;13.60;;
43118;SDS011;28729;49.838;8.650;2023-08-12T11:53:32;19.83;;;12.83;;
43118;SDS011;28729;49.838;8.650;2023-08-12T11:57:34;25.65;;;13.82;;
43118;SDS011;28729;49.838;8.650;2023-08-12T12:01:36;24.58;;;12.88;;
43118;SDS011;28729;49.838;8.650;2023-08-12T12:05:38;31.87;;;15.60;;
43118;SDS011;28729;49.838;8.650;2023-08-12T12:09:42;16.27;;;8.47;;
43118;SDS011;28729;49.838;8.650;2023-08-12T12:13:45;28.30;;;17.85;;
43118;SDS011;28729;49.838;8.650;2023-08-12T12:17:48;22.98;;;15.38;;
43118;SDS011;28729;49.838;8.650;2023-08-12T12:21:52;20.70;;;13.30;;
43118;SDS011;28729;49.838;8.650;2023-08-12T12:26:01;22.58;;;12.32;;
43118;SDS011;28729;49.838;8.650;2023-08-12T12:30:04;22.50;;;12.75;;
43118;SDS011;28729;49.838;8.650;2023-08-12T12:34:07;23.40;;;12.05;;
43118;SDS011;28729;49.838;8.650;2023-08-12T12:38:09;18.17;;;11.10;;
43118;SDS011;28729;49.838;8.650;2023-08-12T12:42:11;13.27;;;9.13;;
43118;SDS011;28729;49.838;8.650;2023-08-12T12:46:13;13.93;;;7.60;;
43118;SDS011;28729;49.838;8.650;2023-08-12T12:50:16;12.25;;;5.78;;
43118;SDS011;28729;49.838;8.650;2023-08-12T12:54:18;9.53;;;6.07;;
43118;SDS011;28729;49.838;8.650;2023-08-12T12:58:20;7.93;;;4.70;;
43118;SDS011;28729;49.838;8.650;2023-08-12T13:02:24;7.32;;;4.20;;
43118;SDS011;28729;49.838;8.650;2023-08-12T13:06:26;5.50;;;2.85;;
43118;SDS011;28729;49.838;8.650;2023-08-12T13:10:28;4.10;;;3.10;;
43118;SDS011;28729;49.838;8.650;2023-08-12T13:14:30;4.57;;;3.13;;
43118;SDS011;28729;49.838;8.650;2023-08-12T13:18:32;4.68;;;2.80;;
43118;SDS011;28729;49.838;8.650;2023-08-12T13:22:34;4.15;;;2.80;;
43118;SDS011;28729;49.838;8.650;2023-08-12T13:26:36;6.07;;;2.97;;
43118;SDS011;28729;49.838;8.650;2023-08-12T13:30:38;3.33;;;2.10;;
43118;SDS011;28729;49.838;8.650;2023-08-12T13:39:50;3.55;;;2.13;;
43118;SDS011;28729;49.838;8.650;2023-08-12T13:43:57;6.65;;;2.33;;
43118;SDS011;28729;49.838;8.650;2023-08-12T13:52:01;3.78;;;2.25;;
43118;SDS011;28729;49.838;8.650;2023-08-12T13:56:03;2.53;;;1.80;;
43118;SDS011;28729;49.838;8.650;2023-08-12T14:00:05;3.67;;;1.90;;
43118;SDS011;28729;49.838;8.650;2023-08-12T14:04:19;4.82;;;2.00;;
43118;SDS011;28729;49.838;8.650;2023-08-12T14:08:26;3.67;;;2.03;;
43118;SDS011;28729;49.838;8.650;2023-08-12T14:18:28;5.05;;;2.10;;
43118;SDS011;28729;49.838;8.650;2023-08-12T14:22:49;2.60;;;1.60;;
43118;SDS011;28729;49.838;8.650;2023-08-12T14:26:51;1.98;;;1.50;;
43118;SDS011;28729;49.838;8.650;2023-08-12T14:30:53;2.30;;;1.50;;
43118;SDS011;28729;49.838;8.650;2023-08-12T14:34:56;2.50;;;1.38;;
43118;SDS011;28729;49.838;8.650;2023-08-12T14:42:59;2.28;;;1.27;;
43118;SDS011;28729;49.838;8.650;2023-08-12T14:47:01;3.72;;;1.50;;
43118;SDS011;28729;49.838;8.650;2023-08-12T14:51:03;4.18;;;1.67;;
43118;SDS011;28729;49.838;8.650;2023-08-12T14:55:05;2.17;;;1.45;;
43118;SDS011;28729;49.838;8.650;2023-08-12T14:59:07;3.42;;;1.92;;
43118;SDS011;28729;49.838;8.650;2023-08-12T15:03:09;2.22;;;1.40;;
43118;SDS011;28729;49.838;8.650;2023-08-12T15:07:13;2.42;;;1.42;;
43118;SDS011;28729;49.838;8.650;2023-08-12T15:11:15;2.60;;;1.70;;
43118;SDS011;28729;49.838;8.650;2023-08-12T15:15:17;2.67;;;1.80;;
43118;SDS011;28729;49.838;8.650;2023-08-12T15:19:19;5.28;;;1.60;;
43118;SDS011;28729;49.838;8.650;2023-08-12T15:23:21;2.92;;;1.50;;
43118;SDS011;28729;49.838;8.650;2023-08-12T15:27:23;3.38;;;1.90;;
43118;SDS011;28729;49.838;8.650;2023-08-12T15:31:25;4.40;;;2.72;;
43118;SDS011;28729;49.838;8.650;2023-08-12T15:35:31;4.13;;;2.50;;
43118;SDS011;28729;49.838;8.650;2023-08-12T15:39:33;3.35;;;2.15;;
43118;SDS011;28729;49.838;8.650;2023-08-12T15:47:36;7.57;;;2.00;;
43118;SDS011;28729;49.838;8.650;2023-08-12T15:51:39;4.15;;;2.10;;
43118;SDS011;28729;49.838;8.650;2023-08-12T15:55:41;3.95;;;2.38;;
43118;SDS011;28729;49.838;8.650;2023-08-12T15:59:43;4.00;;;2.58;;
43118;SDS011;28729;49.838;8.650;2023-08-12T16:03:46;4.05;;;2.63;;
43118;SDS011;28729;49.838;8.650;2023-08-12T16:07:48;5.57;;;2.90;;
43118;SDS011;28729;49.838;8.650;2023-08-12T16:11:50;6.32;;;2.85;;
43118;SDS011;28729;49.838;8.650;2023-08-12T16:15:51;5.35;;;3.17;;
43118;SDS011;28729;49.838;8.650;2023-08-12T16:19:53;4.45;;;2.90;;
43118;SDS011;28729;49.838;8.650;2023-08-12T16:23:55;4.68;;;3.30;;
43118;SDS011;28729;49.838;8.650;2023-08-12T16:27:57;5.85;;;3.13;;
43118;SDS011;28729;49.838;8.650;2023-08-12T16:31:59;4.28;;;2.95;;
43118;SDS011;28729;49.838;8.650;2023-08-12T16:36:01;4.47;;;2.95;;
43118;SDS011;28729;49.838;8.650;2023-08-12T16:40:03;5.78;;;3.33;;
43118;SDS011;28729;49.838;8.650;2023-08-12T16:44:05;4.57;;;3.22;;
43118;SDS011;28729;49.838;8.650;2023-08-12T16:48:07;5.03;;;3.25;;
43118;SDS011;28729;49.838;8.650;2023-08-12T16:52:09;4.95;;;3.30;;
43118;SDS011;28729;49.838;8.650;2023-08-12T17:00:13;5.75;;;4.07;;
43118;SDS011;28729;49.838;8.650;2023-08-12T17:04:15;9.23;;;3.67;;
43118;SDS011;28729;49.838;8.650;2023-08-12T17:08:17;5.55;;;3.53;;
43118;SDS011;28729;49.838;8.650;2023-08-12T17:12:19;10.07;;;4.43;;
43118;SDS011;28729;49.838;8.650;2023-08-12T17:16:21;7.15;;;4.30;;
43118;SDS011;28729;49.838;8.650;2023-08-12T17:20:23;6.63;;;4.07;;
43118;SDS011;28729;49.838;8.650;2023-08-12T17:24:26;5.88;;;4.20;;
43118;SDS011;28729;49.838;8.650;2023-08-12T17:28:27;6.57;;;4.35;;
43118;SDS011;28729;49.838;8.650;2023-08-12T17:32:29;6.90;;;4.63;;
43118;SDS011;28729;49.838;8.650;2023-08-12T17:36:31;5.85;;;4.32;;
43118;SDS011;28729;49.838;8.650;2023-08-12T17:40:34;7.45;;;4.45;;
43118;SDS011;28729;49.838;8.650;2023-08-12T17:44:35;10.15;;;4.60;;
43118;SDS011;28729;49.838;8.650;2023-08-12T17:48:37;8.80;;;4.90;;
43118;SDS011;28729;49.838;8.650;2023-08-12T17:52:40;7.43;;;4.75;;
43118;SDS011;28729;49.838;8.650;2023-08-12T17:56:42;6.75;;;4.35;;
43118;SDS011;28729;49.838;8.650;2023-08-12T18:00:44;9.63;;;4.95;;
43118;SDS011;28729;49.838;8.650;2023-08-12T18:04:46;10.43;;;4.50;;
43118;SDS011;28729;49.838;8.650;2023-08-12T18:08:47;7.28;;;4.85;;
43118;SDS011;28729;49.838;8.650;2023-08-12T18:12:49;8.77;;;4.60;;
43118;SDS011;28729;49.838;8.650;2023-08-12T18:16:51;7.38;;;4.82;;
43118;SDS011;28729;49.838;8.650;2023-08-12T18:20:53;8.70;;;5.45;;
43118;SDS011;28729;49.838;8.650;2023-08-12T18:24:55;8.60;;;4.65;;
43118;SDS011;28729;49.838;8.650;2023-08-12T18:28:57;10.85;;;5.50;;
43118;SDS011;28729;49.838;8.650;2023-08-12T18:32:58;7.07;;;4.80;;
43118;SDS011;28729;49.838;8.650;2023-08-12T18:37:04;6.55;;;4.43;;
43118;SDS011;28729;49.838;8.650;2023-08-12T18:41:06;9.32;;;4.55;;
43118;SDS011;28729;49.838;8.650;2023-08-12T18:45:08;6.60;;;3.70;;
43118;SDS011;28729;49.838;8.650;2023-08-12T18:49:12;6.40;;;3.30;;
43118;SDS011;28729;49.838;8.650;2023-08-12T18:53:14;4.63;;;3.30;;
43118;SDS011;28729;49.838;8.650;2023-08-12T18:57:16;5.97;;;3.07;;
43118;SDS011;28729;49.838;8.650;2023-08-12T19:01:18;8.32;;;3.13;;
43118;SDS011;28729;49.838;8.650;2023-08-12T19:05:20;6.07;;;3.20;;
43118;SDS011;28729;49.838;8.650;2023-08-12T19:09:22;5.87;;;3.27;;
43118;SDS011;28729;49.838;8.650;2023-08-12T19:13:24;6.80;;;3.00;;
43118;SDS011;28729;49.838;8.650;2023-08-12T19:21:28;4.70;;;3.17;;
43118;SDS011;28729;49.838;8.650;2023-08-12T19:29:32;8.25;;;3.13;;
43118;SDS011;28729;49.838;8.650;2023-08-12T19:33:34;6.05;;;2.85;;
43118;SDS011;28729;49.838;8.650;2023-08-12T19:37:36;7.93;;;3.40;;
43118;SDS011;28729;49.838;8.650;2023-08-12T19:41:38;7.55;;;3.15;;
43118;SDS011;28729;49.838;8.650;2023-08-12T19:45:40;6.65;;;3.28;;
43118;SDS011;28729;49.838;8.650;2023-08-12T19:49:42;6.55;;;3.42;;
43118;SDS011;28729;49.838;8.650;2023-08-12T19:53:44;5.03;;;3.43;;
43118;SDS011;28729;49.838;8.650;2023-08-12T19:57:48;6.85;;;3.40;;
43118;SDS011;28729;49.838;8.650;2023-08-12T20:01:50;9.60;;;3.70;;
43118;SDS011;28729;49.838;8.650;2023-08-12T20:05:52;6.27;;;3.07;;
43118;SDS011;28729;49.838;8.650;2023-08-12T20:09:53;4.33;;;2.90;;
43118;SDS011;28729;49.838;8.650;2023-08-12T20:13:55;6.73;;;2.87;;
43118;SDS011;28729;49.838;8.650;2023-08-12T20:17:57;7.57;;;3.27;;
43118;SDS011;28729;49.838;8.650;2023-08-12T20:22:00;6.28;;;3.05;;
43118;SDS011;28729;49.838;8.650;2023-08-12T20:26:01;7.47;;;3.30;;
43118;SDS011;28729;49.838;8.650;2023-08-12T20:30:04;4.43;;;2.90;;
43118;SDS011;28729;49.838;8.650;2023-08-12T20:34:09;5.07;;;3.03;;
43118;SDS011;28729;49.838;8.650;2023-08-12T20:38:10;7.67;;;3.63;;
43118;SDS011;28729;49.838;8.650;2023-08-12T20:42:12;9.30;;;3.47;;
43118;SDS011;28729;49.838;8.650;2023-08-12T20:46:23;8.93;;;3.43;;
43118;SDS011;28729;49.838;8.650;2023-08-12T20:50:25;6.45;;;3.50;;
43118;SDS011;28729;49.838;8.650;2023-08-12T20:54:27;5.53;;;3.17;;
43118;SDS011;28729;49.838;8.650;2023-08-12T20:58:29;7.57;;;3.20;;
43118;SDS011;28729;49.838;8.650;2023-08-12T21:02:31;8.50;;;3.47;;
43118;SDS011;28729;49.838;8.650;2023-08-12T21:06:33;6.07;;;3.85;;
43118;SDS011;28729;49.838;8.650;2023-08-12T21:10:35;6.97;;;3.53;;
43118;SDS011;28729;49.838;8.650;2023-08-12T21:14:37;6.47;;;3.13;;
43118;SDS011;28729;49.838;8.650;2023-08-12T21:18:40;8.20;;;3.60;;
43118;SDS011;28729;49.838;8.650;2023-08-12T21:22:42;7.37;;;3.27;;
43118;SDS011;28729;49.838;8.650;2023-08-12T21:26:45;6.97;;;3.13;;
43118;SDS011;28729;49.838;8.650;2023-08-12T21:30:46;7.70;;;4.03;;
43118;SDS011;28729;49.838;8.650;2023-08-12T21:34:48;7.43;;;3.00;;
43118;SDS011;28729;49.838;8.650;2023-08-12T21:38:50;4.70;;;2.83;;
43118;SDS011;28729;49.838;8.650;2023-08-12T21:42:52;10.50;;;4.13;;
43118;SDS011;28729;49.838;8.650;2023-08-12T21:46:54;6.30;;;3.67;;
43118;SDS011;28729;49.838;8.650;2023-08-12T21:50:55;7.13;;;3.87;;
43118;SDS011;28729;49.838;8.650;2023-08-12T21:54:57;7.53;;;2.85;;
43118;SDS011;28729;49.838;8.650;2023-08-12T21:58:59;6.97;;;3.03;;
43118;SDS011;28729;49.838;8.650;2023-08-12T22:03:01;5.77;;;3.10;;
43118;SDS011;28729;49.838;8.650;2023-08-12T22:07:03;7.27;;;3.23;;
43118;SDS011;28729;49.838;8.650;2023-08-12T22:11:06;6.30;;;3.10;;
43118;SDS011;28729;49.838;8.650;2023-08-12T22:15:07;5.67;;;3.20;;
43118;SDS011;28729;49.838;8.650;2023-08-12T22:23:12;8.50;;;3.90;;
43118;SDS011;28729;49.838;8.650;2023-08-12T22:27:14;8.60;;;3.40;;
43118;SDS011;28729;49.838;8.650;2023-08-12T22:31:16;11.80;;;4.07;;
43118;SDS011;28729;49.838;8.650;2023-08-12T22:35:18;10.50;;;3.90;;
43118;SDS011;28729;49.838;8.650;2023-08-12T22:39:20;10.73;;;3.90;;
43118;SDS011;28729;49.838;8.650;2023-08-12T22:43:25;6.53;;;3.42;;
43118;SDS011;28729;49.838;8.650;2023-08-12T22:47:27;10.80;;;4.10;;
43118;SDS011;28729;49.838;8.650;2023-08-12T22:51:29;7.53;;;4.20;;
43118;SDS011;28729;49.838;8.650;2023-08-12T22:55:31;8.98;;;3.97;;
43118;SDS011;28729;49.838;8.650;2023-08-12T22:59:33;8.77;;;4.40;;
43118;SDS011;28729;49.838;8.650;2023-08-12T23:03:35;8.70;;;4.83;;
43118;SDS011;28729;49.838;8.650;2023-08-12T23:07:37;10.00;;;4.70;;
43118;SDS011;28729;49.838;8.650;2023-08-12T23:11:39;8.77;;;4.25;;
43118;SDS011;28729;49.838;8.650;2023-08-12T23:15:42;10.87;;;4.37;;
43118;SDS011;28729;49.838;8.650;2023-08-12T23:19:44;7.90;;;4.63;;
43118;SDS011;28729;49.838;8.650;2023-08-12T23:23:46;12.53;;;4.13;;
43118;SDS011;28729;49.838;8.650;2023-08-12T23:27:48;7.90;;;4.33;;
43118;SDS011;28729;49.838;8.650;2023-08-12T23:31:50;9.63;;;4.60;;
43118;SDS011;28729;49.838;8.650;2023-08-12T23:35:52;12.17;;;4.87;;
43118;SDS011;28729;49.838;8.650;2023-08-12T23:39:54;9.50;;;4.18;;
43118;SDS011;28729;49.838;8.650;2023-08-12T23:43:56;9.07;;;4.27;;
43118;SDS011;28729;49.838;8.650;2023-08-12T23:47:57;8.30;;;3.77;;
43118;SDS011;28729;49.838;8.650;2023-08-12T23:51:59;13.33;;;5.00;;
43118;SDS011;28729;49.838;8.650;2023-08-12T23:56:01;8.30;;;4.47;;
